sensor_id;sensor_type;location;lat;lon;timestamp;temperature;humidity
8910;DHT22;4490;49.072;8.804;2023-08-07T00:00:12;13.20;99.90
8910;DHT22;4490;49.072;8.804;2023-08-07T00:02:37;13.20;99.90
8910;DHT22;4490;49.072;8.804;2023-08-07T00:05:04;13.20;99.90
8910;DHT22;4490;49.072;8.804;2023-08-07T00:07:30;13.20;99.90
8910;DHT22;4490;49.072;8.804;2023-08-07T00:09:55;13.20;99.90
8910;DHT22;4490;49.072;8.804;2023-08-07T00:12:21;13.20;99.90
8910;DHT22;4490;49.072;8.804;2023-08-07T00:14:50;13.20;99.90
8910;DHT22;4490;49.072;8.804;2023-08-07T00:17:16;13.20;99.90
8910;DHT22;4490;49.072;8.804;2023-08-07T00:19:42;13.20;99.90
8910;DHT22;4490;49.072;8.804;2023-08-07T00:22:07;13.10;99.90
8910;DHT22;4490;49.072;8.804;2023-08-07T00:24:33;13.10;99.90
8910;DHT22;4490;49.072;8.804;2023-08-07T00:26:59;13.10;99.90
8910;DHT22;4490;49.072;8.804;2023-08-07T00:29:25;13.10;99.90
8910;DHT22;4490;49.072;8.804;2023-08-07T00:31:50;13.10;99.90
8910;DHT22;4490;49.072;8.804;2023-08-07T00:34:16;13.10;99.90
8910;DHT22;4490;49.072;8.804;2023-08-07T00:36:41;13.10;99.90
8910;DHT22;4490;49.072;8.804;2023-08-07T00:39:07;13.10;99.90
8910;DHT22;4490;49.072;8.804;2023-08-07T00:41:33;13.10;99.90
8910;DHT22;4490;49.072;8.804;2023-08-07T00:43:59;13.10;99.90
8910;DHT22;4490;49.072;8.804;2023-08-07T00:46:26;13.10;99.90
8910;DHT22;4490;49.072;8.804;2023-08-07T00:48:52;13.10;99.90
8910;DHT22;4490;49.072;8.804;2023-08-07T00:51:19;13.10;99.90
8910;DHT22;4490;49.072;8.804;2023-08-07T00:53:45;13.10;99.90
8910;DHT22;4490;49.072;8.804;2023-08-07T00:56:11;13.10;99.90
8910;DHT22;4490;49.072;8.804;2023-08-07T00:58:37;13.00;99.90
8910;DHT22;4490;49.072;8.804;2023-08-07T01:01:04;13.00;99.90
8910;DHT22;4490;49.072;8.804;2023-08-07T01:03:30;13.00;99.90
8910;DHT22;4490;49.072;8.804;2023-08-07T01:05:55;13.00;99.90
8910;DHT22;4490;49.072;8.804;2023-08-07T01:08:21;13.00;99.90
8910;DHT22;4490;49.072;8.804;2023-08-07T01:13:37;13.00;99.90
8910;DHT22;4490;49.072;8.804;2023-08-07T01:16:11;13.00;99.90
8910;DHT22;4490;49.072;8.804;2023-08-07T01:18:39;13.00;99.90
8910;DHT22;4490;49.072;8.804;2023-08-07T01:21:06;13.00;99.90
8910;DHT22;4490;49.072;8.804;2023-08-07T01:23:31;12.90;99.90
8910;DHT22;4490;49.072;8.804;2023-08-07T01:25:57;12.90;99.90
8910;DHT22;4490;49.072;8.804;2023-08-07T01:28:38;13.00;99.90
8910;DHT22;4490;49.072;8.804;2023-08-07T01:31:11;12.90;99.90
8910;DHT22;4490;49.072;8.804;2023-08-07T01:33:48;12.90;99.90
8910;DHT22;4490;49.072;8.804;2023-08-07T01:36:16;12.90;99.90
8910;DHT22;4490;49.072;8.804;2023-08-07T01:38:42;12.90;99.90
8910;DHT22;4490;49.072;8.804;2023-08-07T01:41:09;12.90;99.90
8910;DHT22;4490;49.072;8.804;2023-08-07T01:43:35;12.90;99.90
8910;DHT22;4490;49.072;8.804;2023-08-07T01:46:01;12.90;99.90
8910;DHT22;4490;49.072;8.804;2023-08-07T01:48:27;12.90;99.90
8910;DHT22;4490;49.072;8.804;2023-08-07T01:50:53;12.90;99.90
8910;DHT22;4490;49.072;8.804;2023-08-07T01:53:19;12.90;99.90
8910;DHT22;4490;49.072;8.804;2023-08-07T01:55:45;12.90;99.90
8910;DHT22;4490;49.072;8.804;2023-08-07T01:58:10;12.90;99.90
8910;DHT22;4490;49.072;8.804;2023-08-07T02:00:36;12.90;99.90
8910;DHT22;4490;49.072;8.804;2023-08-07T02:03:01;12.90;99.90
8910;DHT22;4490;49.072;8.804;2023-08-07T02:05:27;12.90;99.90
8910;DHT22;4490;49.072;8.804;2023-08-07T02:07:52;12.90;99.90
8910;DHT22;4490;49.072;8.804;2023-08-07T02:10:18;12.90;99.90
8910;DHT22;4490;49.072;8.804;2023-08-07T02:12:44;12.90;99.90
8910;DHT22;4490;49.072;8.804;2023-08-07T02:15:09;12.90;99.90
8910;DHT22;4490;49.072;8.804;2023-08-07T02:17:35;12.90;99.90
8910;DHT22;4490;49.072;8.804;2023-08-07T02:20:04;12.90;99.90
8910;DHT22;4490;49.072;8.804;2023-08-07T02:22:30;12.90;99.90
8910;DHT22;4490;49.072;8.804;2023-08-07T02:24:56;12.90;99.90
8910;DHT22;4490;49.072;8.804;2023-08-07T02:27:21;12.90;99.90
8910;DHT22;4490;49.072;8.804;2023-08-07T02:29:47;12.90;99.90
8910;DHT22;4490;49.072;8.804;2023-08-07T02:32:13;12.90;99.90
8910;DHT22;4490;49.072;8.804;2023-08-07T02:34:38;12.90;99.90
8910;DHT22;4490;49.072;8.804;2023-08-07T02:37:04;12.90;99.90
8910;DHT22;4490;49.072;8.804;2023-08-07T02:39:31;12.90;99.90
8910;DHT22;4490;49.072;8.804;2023-08-07T02:41:57;12.90;99.90
8910;DHT22;4490;49.072;8.804;2023-08-07T02:44:23;12.90;99.90
8910;DHT22;4490;49.072;8.804;2023-08-07T02:46:48;12.90;99.90
8910;DHT22;4490;49.072;8.804;2023-08-07T02:49:14;12.90;99.90
8910;DHT22;4490;49.072;8.804;2023-08-07T02:51:39;12.90;99.90
8910;DHT22;4490;49.072;8.804;2023-08-07T02:54:05;12.90;99.90
8910;DHT22;4490;49.072;8.804;2023-08-07T02:56:31;12.90;99.90
8910;DHT22;4490;49.072;8.804;2023-08-07T02:58:56;12.90;99.90
8910;DHT22;4490;49.072;8.804;2023-08-07T03:01:24;12.90;99.90
8910;DHT22;4490;49.072;8.804;2023-08-07T03:03:50;12.90;99.90
8910;DHT22;4490;49.072;8.804;2023-08-07T03:06:15;12.90;99.90
8910;DHT22;4490;49.072;8.804;2023-08-07T03:08:41;12.90;99.90
8910;DHT22;4490;49.072;8.804;2023-08-07T03:11:08;12.90;99.90
8910;DHT22;4490;49.072;8.804;2023-08-07T03:13:33;12.90;99.90
8910;DHT22;4490;49.072;8.804;2023-08-07T03:16:01;12.90;99.90
8910;DHT22;4490;49.072;8.804;2023-08-07T03:18:27;12.90;99.90
8910;DHT22;4490;49.072;8.804;2023-08-07T03:20:54;12.90;99.90
8910;DHT22;4490;49.072;8.804;2023-08-07T03:23:19;12.90;99.90
8910;DHT22;4490;49.072;8.804;2023-08-07T03:25:45;12.90;99.90
8910;DHT22;4490;49.072;8.804;2023-08-07T03:28:10;12.80;99.90
8910;DHT22;4490;49.072;8.804;2023-08-07T03:30:36;12.80;99.90
8910;DHT22;4490;49.072;8.804;2023-08-07T03:33:03;12.80;99.90
8910;DHT22;4490;49.072;8.804;2023-08-07T03:35:28;12.80;99.90
8910;DHT22;4490;49.072;8.804;2023-08-07T03:37:54;12.90;99.90
8910;DHT22;4490;49.072;8.804;2023-08-07T03:40:20;12.90;99.90
8910;DHT22;4490;49.072;8.804;2023-08-07T03:42:45;12.90;99.90
8910;DHT22;4490;49.072;8.804;2023-08-07T03:45:11;12.90;99.90
8910;DHT22;4490;49.072;8.804;2023-08-07T03:47:36;12.90;99.90
8910;DHT22;4490;49.072;8.804;2023-08-07T03:50:02;12.90;99.90
8910;DHT22;4490;49.072;8.804;2023-08-07T03:52:28;12.90;99.90
8910;DHT22;4490;49.072;8.804;2023-08-07T03:54:53;12.90;99.90
8910;DHT22;4490;49.072;8.804;2023-08-07T03:57:19;12.90;99.90
8910;DHT22;4490;49.072;8.804;2023-08-07T03:59:45;12.90;99.90
8910;DHT22;4490;49.072;8.804;2023-08-07T04:02:10;12.90;99.90
8910;DHT22;4490;49.072;8.804;2023-08-07T04:04:36;12.90;99.90
8910;DHT22;4490;49.072;8.804;2023-08-07T04:07:01;12.90;99.90
8910;DHT22;4490;49.072;8.804;2023-08-07T04:09:27;12.90;99.90
8910;DHT22;4490;49.072;8.804;2023-08-07T04:11:54;13.00;99.90
8910;DHT22;4490;49.072;8.804;2023-08-07T04:14:20;12.90;99.90
8910;DHT22;4490;49.072;8.804;2023-08-07T04:16:46;12.90;99.90
8910;DHT22;4490;49.072;8.804;2023-08-07T04:19:11;12.90;99.90
8910;DHT22;4490;49.072;8.804;2023-08-07T04:21:37;12.90;99.90
8910;DHT22;4490;49.072;8.804;2023-08-07T04:24:03;12.90;99.90
8910;DHT22;4490;49.072;8.804;2023-08-07T04:26:36;12.90;99.90
8910;DHT22;4490;49.072;8.804;2023-08-07T04:29:02;12.90;99.90
8910;DHT22;4490;49.072;8.804;2023-08-07T04:31:28;12.90;99.90
8910;DHT22;4490;49.072;8.804;2023-08-07T04:33:56;12.90;99.90
8910;DHT22;4490;49.072;8.804;2023-08-07T04:36:22;12.90;99.90
8910;DHT22;4490;49.072;8.804;2023-08-07T04:38:49;12.90;99.90
8910;DHT22;4490;49.072;8.804;2023-08-07T04:41:15;12.90;99.90
8910;DHT22;4490;49.072;8.804;2023-08-07T04:43:40;12.90;99.90
8910;DHT22;4490;49.072;8.804;2023-08-07T04:46:08;12.90;99.90
8910;DHT22;4490;49.072;8.804;2023-08-07T04:48:35;12.90;99.90
8910;DHT22;4490;49.072;8.804;2023-08-07T04:51:01;13.00;99.90
8910;DHT22;4490;49.072;8.804;2023-08-07T04:53:26;12.90;99.90
8910;DHT22;4490;49.072;8.804;2023-08-07T04:55:52;13.00;99.90
8910;DHT22;4490;49.072;8.804;2023-08-07T04:58:18;13.00;99.90
8910;DHT22;4490;49.072;8.804;2023-08-07T05:00:43;13.00;99.90
8910;DHT22;4490;49.072;8.804;2023-08-07T05:03:09;13.00;99.90
8910;DHT22;4490;49.072;8.804;2023-08-07T05:05:34;13.00;99.90
8910;DHT22;4490;49.072;8.804;2023-08-07T05:08:00;13.00;99.90
8910;DHT22;4490;49.072;8.804;2023-08-07T05:10:26;13.00;99.90
8910;DHT22;4490;49.072;8.804;2023-08-07T05:12:52;13.00;99.90
8910;DHT22;4490;49.072;8.804;2023-08-07T05:15:21;13.00;99.90
8910;DHT22;4490;49.072;8.804;2023-08-07T05:17:48;13.00;99.90
8910;DHT22;4490;49.072;8.804;2023-08-07T05:20:13;13.00;99.90
8910;DHT22;4490;49.072;8.804;2023-08-07T05:22:39;13.10;99.90
8910;DHT22;4490;49.072;8.804;2023-08-07T05:25:05;13.10;99.90
8910;DHT22;4490;49.072;8.804;2023-08-07T05:27:30;13.10;99.90
8910;DHT22;4490;49.072;8.804;2023-08-07T05:29:56;13.10;99.90
8910;DHT22;4490;49.072;8.804;2023-08-07T05:32:22;13.20;99.90
8910;DHT22;4490;49.072;8.804;2023-08-07T05:34:47;13.20;99.90
8910;DHT22;4490;49.072;8.804;2023-08-07T05:37:13;13.20;99.90
8910;DHT22;4490;49.072;8.804;2023-08-07T05:39:38;13.30;99.90
8910;DHT22;4490;49.072;8.804;2023-08-07T05:42:04;13.30;99.90
8910;DHT22;4490;49.072;8.804;2023-08-07T05:44:30;13.30;99.90
8910;DHT22;4490;49.072;8.804;2023-08-07T05:46:56;13.30;99.90
8910;DHT22;4490;49.072;8.804;2023-08-07T05:49:21;13.40;99.90
8910;DHT22;4490;49.072;8.804;2023-08-07T05:51:47;13.40;99.90
8910;DHT22;4490;49.072;8.804;2023-08-07T05:54:13;13.40;99.90
8910;DHT22;4490;49.072;8.804;2023-08-07T05:56:40;13.50;99.90
8910;DHT22;4490;49.072;8.804;2023-08-07T05:59:06;13.50;99.90
8910;DHT22;4490;49.072;8.804;2023-08-07T06:01:32;13.60;99.90
8910;DHT22;4490;49.072;8.804;2023-08-07T06:03:58;13.60;99.90
8910;DHT22;4490;49.072;8.804;2023-08-07T06:06:24;13.60;99.90
8910;DHT22;4490;49.072;8.804;2023-08-07T06:08:51;13.70;99.90
8910;DHT22;4490;49.072;8.804;2023-08-07T06:11:17;13.70;99.90
8910;DHT22;4490;49.072;8.804;2023-08-07T06:13:43;13.70;99.90
8910;DHT22;4490;49.072;8.804;2023-08-07T06:16:09;13.80;99.90
8910;DHT22;4490;49.072;8.804;2023-08-07T06:18:34;13.80;99.90
8910;DHT22;4490;49.072;8.804;2023-08-07T06:21:00;13.80;99.90
8910;DHT22;4490;49.072;8.804;2023-08-07T06:23:26;13.90;99.90
8910;DHT22;4490;49.072;8.804;2023-08-07T06:25:52;13.90;99.90
8910;DHT22;4490;49.072;8.804;2023-08-07T06:28:17;13.90;99.90
8910;DHT22;4490;49.072;8.804;2023-08-07T06:30:43;13.90;99.90
8910;DHT22;4490;49.072;8.804;2023-08-07T06:33:08;13.90;99.90
8910;DHT22;4490;49.072;8.804;2023-08-07T06:35:38;14.00;99.90
8910;DHT22;4490;49.072;8.804;2023-08-07T06:38:04;14.00;99.90
8910;DHT22;4490;49.072;8.804;2023-08-07T06:40:30;14.10;99.90
8910;DHT22;4490;49.072;8.804;2023-08-07T06:42:55;14.10;99.90
8910;DHT22;4490;49.072;8.804;2023-08-07T06:45:21;14.10;99.90
8910;DHT22;4490;49.072;8.804;2023-08-07T06:47:47;14.10;99.90
8910;DHT22;4490;49.072;8.804;2023-08-07T06:50:13;14.10;99.90
8910;DHT22;4490;49.072;8.804;2023-08-07T06:52:39;14.20;99.90
8910;DHT22;4490;49.072;8.804;2023-08-07T06:55:05;14.20;99.90
8910;DHT22;4490;49.072;8.804;2023-08-07T06:57:31;14.20;99.90
8910;DHT22;4490;49.072;8.804;2023-08-07T06:59:56;14.30;99.90
8910;DHT22;4490;49.072;8.804;2023-08-07T07:02:22;14.20;99.90
8910;DHT22;4490;49.072;8.804;2023-08-07T07:04:48;14.20;99.90
8910;DHT22;4490;49.072;8.804;2023-08-07T07:07:13;14.20;99.90
8910;DHT22;4490;49.072;8.804;2023-08-07T07:09:39;14.30;99.90
8910;DHT22;4490;49.072;8.804;2023-08-07T07:12:05;14.30;99.90
8910;DHT22;4490;49.072;8.804;2023-08-07T07:14:32;14.30;99.90
8910;DHT22;4490;49.072;8.804;2023-08-07T07:16:58;14.30;99.90
8910;DHT22;4490;49.072;8.804;2023-08-07T07:19:23;14.30;99.90
8910;DHT22;4490;49.072;8.804;2023-08-07T07:21:49;14.30;99.90
8910;DHT22;4490;49.072;8.804;2023-08-07T07:24:15;14.30;99.90
8910;DHT22;4490;49.072;8.804;2023-08-07T07:26:40;14.30;99.90
8910;DHT22;4490;49.072;8.804;2023-08-07T07:29:06;14.30;99.90
8910;DHT22;4490;49.072;8.804;2023-08-07T07:31:32;14.40;99.90
8910;DHT22;4490;49.072;8.804;2023-08-07T07:33:58;14.50;99.90
8910;DHT22;4490;49.072;8.804;2023-08-07T07:36:23;14.50;99.90
8910;DHT22;4490;49.072;8.804;2023-08-07T07:38:49;14.50;99.90
8910;DHT22;4490;49.072;8.804;2023-08-07T07:41:15;14.60;99.90
8910;DHT22;4490;49.072;8.804;2023-08-07T07:43:41;14.60;99.90
8910;DHT22;4490;49.072;8.804;2023-08-07T07:46:07;14.70;99.90
8910;DHT22;4490;49.072;8.804;2023-08-07T07:48:32;14.70;99.90
8910;DHT22;4490;49.072;8.804;2023-08-07T07:51:02;14.70;99.90
8910;DHT22;4490;49.072;8.804;2023-08-07T07:53:28;14.80;99.90
8910;DHT22;4490;49.072;8.804;2023-08-07T07:55:54;14.80;99.90
8910;DHT22;4490;49.072;8.804;2023-08-07T07:58:20;14.90;99.90
8910;DHT22;4490;49.072;8.804;2023-08-07T08:00:46;14.90;99.90
8910;DHT22;4490;49.072;8.804;2023-08-07T08:03:12;15.00;99.90
8910;DHT22;4490;49.072;8.804;2023-08-07T08:05:38;15.00;99.90
8910;DHT22;4490;49.072;8.804;2023-08-07T08:08:05;15.10;99.90
8910;DHT22;4490;49.072;8.804;2023-08-07T08:10:31;15.10;99.90
8910;DHT22;4490;49.072;8.804;2023-08-07T08:12:57;15.10;99.90
8910;DHT22;4490;49.072;8.804;2023-08-07T08:15:22;15.20;99.90
8910;DHT22;4490;49.072;8.804;2023-08-07T08:17:48;15.10;99.90
8910;DHT22;4490;49.072;8.804;2023-08-07T08:20:14;15.10;99.90
8910;DHT22;4490;49.072;8.804;2023-08-07T08:22:44;15.10;99.90
8910;DHT22;4490;49.072;8.804;2023-08-07T08:25:11;15.20;99.90
8910;DHT22;4490;49.072;8.804;2023-08-07T08:27:40;15.20;99.90
8910;DHT22;4490;49.072;8.804;2023-08-07T08:30:06;15.20;99.90
8910;DHT22;4490;49.072;8.804;2023-08-07T08:32:32;15.20;99.90
8910;DHT22;4490;49.072;8.804;2023-08-07T08:34:58;15.30;99.90
8910;DHT22;4490;49.072;8.804;2023-08-07T08:37:24;15.30;99.90
8910;DHT22;4490;49.072;8.804;2023-08-07T08:39:50;15.40;99.90
8910;DHT22;4490;49.072;8.804;2023-08-07T08:42:15;15.40;99.90
8910;DHT22;4490;49.072;8.804;2023-08-07T08:44:48;15.50;99.90
8910;DHT22;4490;49.072;8.804;2023-08-07T08:47:17;15.60;99.90
8910;DHT22;4490;49.072;8.804;2023-08-07T08:49:47;15.80;99.90
8910;DHT22;4490;49.072;8.804;2023-08-07T08:52:15;16.10;99.90
8910;DHT22;4490;49.072;8.804;2023-08-07T08:54:42;16.30;99.90
8910;DHT22;4490;49.072;8.804;2023-08-07T08:57:08;16.50;99.90
8910;DHT22;4490;49.072;8.804;2023-08-07T08:59:34;16.80;99.90
8910;DHT22;4490;49.072;8.804;2023-08-07T09:02:00;17.00;98.00
8910;DHT22;4490;49.072;8.804;2023-08-07T09:04:26;17.30;96.30
8910;DHT22;4490;49.072;8.804;2023-08-07T09:06:52;17.40;95.30
8910;DHT22;4490;49.072;8.804;2023-08-07T09:09:20;17.60;94.00
8910;DHT22;4490;49.072;8.804;2023-08-07T09:11:45;17.80;93.30
8910;DHT22;4490;49.072;8.804;2023-08-07T09:14:15;18.00;92.60
8910;DHT22;4490;49.072;8.804;2023-08-07T09:16:42;18.20;92.50
8910;DHT22;4490;49.072;8.804;2023-08-07T09:19:08;18.30;91.30
8910;DHT22;4490;49.072;8.804;2023-08-07T09:21:34;18.40;90.90
8910;DHT22;4490;49.072;8.804;2023-08-07T09:24:00;18.50;90.20
8910;DHT22;4490;49.072;8.804;2023-08-07T09:26:26;18.60;88.80
8910;DHT22;4490;49.072;8.804;2023-08-07T09:28:53;18.70;89.20
8910;DHT22;4490;49.072;8.804;2023-08-07T09:31:20;18.80;88.10
8910;DHT22;4490;49.072;8.804;2023-08-07T09:33:49;18.80;87.60
8910;DHT22;4490;49.072;8.804;2023-08-07T09:36:15;18.80;88.00
8910;DHT22;4490;49.072;8.804;2023-08-07T09:38:42;18.90;88.90
8910;DHT22;4490;49.072;8.804;2023-08-07T09:41:08;18.90;88.80
8910;DHT22;4490;49.072;8.804;2023-08-07T09:43:34;18.80;85.30
8910;DHT22;4490;49.072;8.804;2023-08-07T09:46:05;18.70;84.20
8910;DHT22;4490;49.072;8.804;2023-08-07T09:48:31;18.70;83.70
8910;DHT22;4490;49.072;8.804;2023-08-07T09:51:19;18.60;84.10
8910;DHT22;4490;49.072;8.804;2023-08-07T09:53:47;18.60;83.40
8910;DHT22;4490;49.072;8.804;2023-08-07T09:56:16;18.60;84.60
8910;DHT22;4490;49.072;8.804;2023-08-07T09:58:47;18.70;84.00
8910;DHT22;4490;49.072;8.804;2023-08-07T10:01:15;18.80;84.60
8910;DHT22;4490;49.072;8.804;2023-08-07T10:03:41;18.90;84.20
8910;DHT22;4490;49.072;8.804;2023-08-07T10:06:07;19.10;85.20
8910;DHT22;4490;49.072;8.804;2023-08-07T10:08:34;19.10;83.50
8910;DHT22;4490;49.072;8.804;2023-08-07T10:11:01;19.20;82.20
8910;DHT22;4490;49.072;8.804;2023-08-07T10:13:27;19.20;83.00
8910;DHT22;4490;49.072;8.804;2023-08-07T10:15:54;19.30;82.70
8910;DHT22;4490;49.072;8.804;2023-08-07T10:18:20;19.30;81.20
8910;DHT22;4490;49.072;8.804;2023-08-07T10:20:47;19.40;81.00
8910;DHT22;4490;49.072;8.804;2023-08-07T10:23:13;19.30;80.30
8910;DHT22;4490;49.072;8.804;2023-08-07T10:25:43;19.20;80.50
8910;DHT22;4490;49.072;8.804;2023-08-07T10:28:15;19.20;81.40
8910;DHT22;4490;49.072;8.804;2023-08-07T10:30:42;19.10;81.20
8910;DHT22;4490;49.072;8.804;2023-08-07T10:33:09;19.10;80.80
8910;DHT22;4490;49.072;8.804;2023-08-07T10:35:35;19.00;80.90
8910;DHT22;4490;49.072;8.804;2023-08-07T10:38:08;18.90;80.00
8910;DHT22;4490;49.072;8.804;2023-08-07T10:40:38;18.80;80.20
8910;DHT22;4490;49.072;8.804;2023-08-07T10:43:20;18.60;79.30
8910;DHT22;4490;49.072;8.804;2023-08-07T10:45:45;18.50;79.70
8910;DHT22;4490;49.072;8.804;2023-08-07T10:48:12;18.50;79.80
8910;DHT22;4490;49.072;8.804;2023-08-07T10:51:04;18.40;79.60
8910;DHT22;4490;49.072;8.804;2023-08-07T10:53:37;18.50;78.60
8910;DHT22;4490;49.072;8.804;2023-08-07T10:56:15;18.40;79.90
8910;DHT22;4490;49.072;8.804;2023-08-07T10:58:41;18.40;79.60
8910;DHT22;4490;49.072;8.804;2023-08-07T11:04:05;18.40;79.20
8910;DHT22;4490;49.072;8.804;2023-08-07T11:06:32;18.30;79.60
8910;DHT22;4490;49.072;8.804;2023-08-07T11:08:59;18.30;80.20
8910;DHT22;4490;49.072;8.804;2023-08-07T11:11:26;18.20;80.70
8910;DHT22;4490;49.072;8.804;2023-08-07T11:13:52;18.10;81.70
8910;DHT22;4490;49.072;8.804;2023-08-07T11:16:18;18.00;82.10
8910;DHT22;4490;49.072;8.804;2023-08-07T11:18:47;17.90;82.80
8910;DHT22;4490;49.072;8.804;2023-08-07T11:21:13;17.80;83.20
8910;DHT22;4490;49.072;8.804;2023-08-07T11:23:41;17.70;84.50
8910;DHT22;4490;49.072;8.804;2023-08-07T11:26:09;17.70;85.10
8910;DHT22;4490;49.072;8.804;2023-08-07T11:28:35;17.60;86.20
8910;DHT22;4490;49.072;8.804;2023-08-07T11:31:01;17.60;86.50
8910;DHT22;4490;49.072;8.804;2023-08-07T11:33:28;17.70;87.20
8910;DHT22;4490;49.072;8.804;2023-08-07T11:35:55;17.70;88.80
8910;DHT22;4490;49.072;8.804;2023-08-07T11:38:33;17.70;90.20
8910;DHT22;4490;49.072;8.804;2023-08-07T11:41:03;17.70;89.10
8910;DHT22;4490;49.072;8.804;2023-08-07T11:43:30;17.80;90.20
8910;DHT22;4490;49.072;8.804;2023-08-07T11:45:58;17.80;90.90
8910;DHT22;4490;49.072;8.804;2023-08-07T11:48:30;17.80;91.20
8910;DHT22;4490;49.072;8.804;2023-08-07T11:50:57;17.90;91.20
8910;DHT22;4490;49.072;8.804;2023-08-07T11:53:25;18.00;91.30
8910;DHT22;4490;49.072;8.804;2023-08-07T11:55:58;18.00;91.50
8910;DHT22;4490;49.072;8.804;2023-08-07T11:58:26;18.00;92.10
8910;DHT22;4490;49.072;8.804;2023-08-07T12:00:52;17.90;91.90
8910;DHT22;4490;49.072;8.804;2023-08-07T12:03:37;17.90;92.50
8910;DHT22;4490;49.072;8.804;2023-08-07T12:06:06;17.90;92.40
8910;DHT22;4490;49.072;8.804;2023-08-07T12:08:37;17.90;92.70
8910;DHT22;4490;49.072;8.804;2023-08-07T12:11:08;17.80;93.50
8910;DHT22;4490;49.072;8.804;2023-08-07T12:13:46;17.80;93.20
8910;DHT22;4490;49.072;8.804;2023-08-07T12:16:14;17.90;93.70
8910;DHT22;4490;49.072;8.804;2023-08-07T12:18:44;17.90;95.10
8910;DHT22;4490;49.072;8.804;2023-08-07T12:21:12;18.00;95.90
8910;DHT22;4490;49.072;8.804;2023-08-07T12:23:38;18.00;97.30
8910;DHT22;4490;49.072;8.804;2023-08-07T12:26:04;18.00;96.80
8910;DHT22;4490;49.072;8.804;2023-08-07T12:28:36;18.10;95.90
8910;DHT22;4490;49.072;8.804;2023-08-07T12:31:02;18.10;96.00
8910;DHT22;4490;49.072;8.804;2023-08-07T12:33:29;18.20;96.10
8910;DHT22;4490;49.072;8.804;2023-08-07T12:35:55;18.20;94.70
8910;DHT22;4490;49.072;8.804;2023-08-07T12:38:21;18.30;95.60
8910;DHT22;4490;49.072;8.804;2023-08-07T12:40:47;18.40;95.90
8910;DHT22;4490;49.072;8.804;2023-08-07T12:43:13;18.50;94.40
8910;DHT22;4490;49.072;8.804;2023-08-07T12:45:38;18.60;94.40
8910;DHT22;4490;49.072;8.804;2023-08-07T12:48:04;18.70;94.40
8910;DHT22;4490;49.072;8.804;2023-08-07T12:50:30;18.90;94.10
8910;DHT22;4490;49.072;8.804;2023-08-07T12:52:56;19.00;93.60
8910;DHT22;4490;49.072;8.804;2023-08-07T12:55:22;19.00;91.80
8910;DHT22;4490;49.072;8.804;2023-08-07T12:57:48;19.10;92.00
8910;DHT22;4490;49.072;8.804;2023-08-07T13:00:16;19.20;92.20
8910;DHT22;4490;49.072;8.804;2023-08-07T13:02:45;19.20;92.10
8910;DHT22;4490;49.072;8.804;2023-08-07T13:05:12;19.30;91.50
8910;DHT22;4490;49.072;8.804;2023-08-07T13:07:38;19.40;91.20
8910;DHT22;4490;49.072;8.804;2023-08-07T13:10:05;19.50;90.10
8910;DHT22;4490;49.072;8.804;2023-08-07T13:12:34;19.60;87.90
8910;DHT22;4490;49.072;8.804;2023-08-07T13:15:00;19.70;88.40
8910;DHT22;4490;49.072;8.804;2023-08-07T13:17:25;19.80;90.00
8910;DHT22;4490;49.072;8.804;2023-08-07T13:19:51;20.00;87.90
8910;DHT22;4490;49.072;8.804;2023-08-07T13:22:17;20.20;87.60
8910;DHT22;4490;49.072;8.804;2023-08-07T13:24:42;20.50;89.80
8910;DHT22;4490;49.072;8.804;2023-08-07T13:27:08;20.80;88.10
8910;DHT22;4490;49.072;8.804;2023-08-07T13:29:34;21.20;82.60
8910;DHT22;4490;49.072;8.804;2023-08-07T13:32:00;21.40;78.70
8910;DHT22;4490;49.072;8.804;2023-08-07T13:34:25;21.50;77.40
8910;DHT22;4490;49.072;8.804;2023-08-07T13:36:51;21.50;77.30
8910;DHT22;4490;49.072;8.804;2023-08-07T13:39:17;21.60;76.50
8910;DHT22;4490;49.072;8.804;2023-08-07T13:41:42;21.70;76.70
8910;DHT22;4490;49.072;8.804;2023-08-07T13:44:08;21.70;75.10
8910;DHT22;4490;49.072;8.804;2023-08-07T13:46:33;21.60;75.00
8910;DHT22;4490;49.072;8.804;2023-08-07T13:48:59;21.50;74.10
8910;DHT22;4490;49.072;8.804;2023-08-07T13:51:25;21.30;73.70
8910;DHT22;4490;49.072;8.804;2023-08-07T13:53:51;21.10;73.40
8910;DHT22;4490;49.072;8.804;2023-08-07T13:56:18;20.80;73.00
8910;DHT22;4490;49.072;8.804;2023-08-07T13:58:43;20.70;74.00
8910;DHT22;4490;49.072;8.804;2023-08-07T14:01:09;20.60;74.60
8910;DHT22;4490;49.072;8.804;2023-08-07T14:03:34;20.50;75.60
8910;DHT22;4490;49.072;8.804;2023-08-07T14:06:01;20.50;74.60
8910;DHT22;4490;49.072;8.804;2023-08-07T14:08:26;20.50;72.60
8910;DHT22;4490;49.072;8.804;2023-08-07T14:10:52;20.60;73.30
8910;DHT22;4490;49.072;8.804;2023-08-07T14:13:18;20.60;73.00
8910;DHT22;4490;49.072;8.804;2023-08-07T14:15:44;20.70;72.90
8910;DHT22;4490;49.072;8.804;2023-08-07T14:18:09;20.70;74.10
8910;DHT22;4490;49.072;8.804;2023-08-07T14:20:37;20.70;73.00
8910;DHT22;4490;49.072;8.804;2023-08-07T14:23:02;20.70;73.00
8910;DHT22;4490;49.072;8.804;2023-08-07T14:25:28;20.60;73.00
8910;DHT22;4490;49.072;8.804;2023-08-07T14:27:54;20.60;73.50
8910;DHT22;4490;49.072;8.804;2023-08-07T14:30:20;20.60;72.30
8910;DHT22;4490;49.072;8.804;2023-08-07T14:32:45;20.70;73.20
8910;DHT22;4490;49.072;8.804;2023-08-07T14:35:13;20.80;73.80
8910;DHT22;4490;49.072;8.804;2023-08-07T14:37:40;21.10;73.00
8910;DHT22;4490;49.072;8.804;2023-08-07T14:40:06;21.30;74.00
8910;DHT22;4490;49.072;8.804;2023-08-07T14:42:32;21.50;73.50
8910;DHT22;4490;49.072;8.804;2023-08-07T14:44:58;21.60;74.00
8910;DHT22;4490;49.072;8.804;2023-08-07T14:47:23;21.70;73.10
8910;DHT22;4490;49.072;8.804;2023-08-07T14:49:49;21.80;73.10
8910;DHT22;4490;49.072;8.804;2023-08-07T14:52:15;21.80;73.20
8910;DHT22;4490;49.072;8.804;2023-08-07T14:54:41;21.80;73.10
8910;DHT22;4490;49.072;8.804;2023-08-07T14:57:06;21.80;73.10
8910;DHT22;4490;49.072;8.804;2023-08-07T14:59:32;21.80;73.00
8910;DHT22;4490;49.072;8.804;2023-08-07T15:01:58;21.60;72.00
8910;DHT22;4490;49.072;8.804;2023-08-07T15:04:24;21.50;71.70
8910;DHT22;4490;49.072;8.804;2023-08-07T15:06:50;21.40;71.00
8910;DHT22;4490;49.072;8.804;2023-08-07T15:09:16;21.20;71.30
8910;DHT22;4490;49.072;8.804;2023-08-07T15:11:43;21.10;71.80
8910;DHT22;4490;49.072;8.804;2023-08-07T15:14:08;20.90;71.20
8910;DHT22;4490;49.072;8.804;2023-08-07T15:16:34;20.80;72.10
8910;DHT22;4490;49.072;8.804;2023-08-07T15:19:02;20.70;72.40
8910;DHT22;4490;49.072;8.804;2023-08-07T15:21:29;20.70;73.80
8910;DHT22;4490;49.072;8.804;2023-08-07T15:23:55;20.70;73.60
8910;DHT22;4490;49.072;8.804;2023-08-07T15:26:20;20.80;72.90
8910;DHT22;4490;49.072;8.804;2023-08-07T15:28:46;20.80;73.60
8910;DHT22;4490;49.072;8.804;2023-08-07T15:31:12;20.90;73.10
8910;DHT22;4490;49.072;8.804;2023-08-07T15:33:37;21.00;72.90
8910;DHT22;4490;49.072;8.804;2023-08-07T15:36:03;21.00;72.50
8910;DHT22;4490;49.072;8.804;2023-08-07T15:38:29;21.00;72.50
8910;DHT22;4490;49.072;8.804;2023-08-07T15:40:55;21.10;73.60
8910;DHT22;4490;49.072;8.804;2023-08-07T15:43:21;21.10;72.50
8910;DHT22;4490;49.072;8.804;2023-08-07T15:45:51;21.10;72.00
8910;DHT22;4490;49.072;8.804;2023-08-07T15:48:20;21.10;72.10
8910;DHT22;4490;49.072;8.804;2023-08-07T15:50:46;21.10;72.30
8910;DHT22;4490;49.072;8.804;2023-08-07T15:53:12;21.10;72.20
8910;DHT22;4490;49.072;8.804;2023-08-07T15:55:37;21.10;71.90
8910;DHT22;4490;49.072;8.804;2023-08-07T15:58:04;21.10;71.50
8910;DHT22;4490;49.072;8.804;2023-08-07T16:00:31;21.10;72.30
8910;DHT22;4490;49.072;8.804;2023-08-07T16:03:09;21.10;72.40